createdAt,value
2018-02-14T00:01:36.706Z,25.60
2018-02-14T00:04:02.923Z,24.20
2018-02-14T00:06:29.198Z,28.30
2018-02-14T00:08:55.336Z,26.50
2018-02-14T00:11:21.540Z,24.60
2018-02-14T00:13:47.826Z,28.20
2018-02-14T00:16:13.969Z,23.90
2018-02-14T00:18:40.093Z,25.40
2018-02-14T00:21:06.225Z,27.30
2018-02-14T00:23:32.376Z,24.50
2018-02-14T00:25:58.565Z,26.70
2018-02-14T00:28:25.549Z,24.20
2018-02-14T00:30:51.778Z,24.30
2018-02-14T00:33:18.782Z,24.60
2018-02-14T00:35:45.087Z,24.30
2018-02-14T00:38:14.515Z,23.80
2018-02-14T00:40:40.598Z,24.20
2018-02-14T00:43:07.383Z,25.80
2018-02-14T00:45:34.288Z,24.10
2018-02-14T00:48:00.479Z,23.90
2018-02-14T00:50:26.613Z,24.40
2018-02-14T00:52:52.842Z,24.20
2018-02-14T00:55:19.822Z,24.70
2018-02-14T00:57:46.035Z,24.60
2018-02-14T01:00:12.179Z,25.70
2018-02-14T01:02:38.429Z,23.60
2018-02-14T01:05:05.313Z,23.90
2018-02-14T01:07:31.469Z,23.80
2018-02-14T01:09:57.690Z,24.50
2018-02-14T01:12:24.910Z,25.10
2018-02-14T01:14:51.040Z,25.30
2018-02-14T01:17:17.254Z,23.60
2018-02-14T01:19:43.434Z,25.50
2018-02-14T01:22:09.914Z,26.70
2018-02-14T01:24:36.767Z,28.10
2018-02-14T01:27:02.950Z,27.70
2018-02-14T01:29:29.176Z,28.10
2018-02-14T01:31:55.443Z,31.30
2018-02-14T01:34:21.672Z,36.00
2018-02-14T01:36:47.882Z,28.10
2018-02-14T01:39:14.032Z,34.30
2018-02-14T01:41:40.196Z,34.30
2018-02-14T01:44:06.404Z,33.50
2018-02-14T01:46:32.551Z,32.90
2018-02-14T01:48:58.799Z,39.50
2018-02-14T01:51:25.218Z,32.00
2018-02-14T01:53:51.409Z,42.50
2018-02-14T01:56:17.594Z,44.00
2018-02-14T01:58:43.805Z,37.80
2018-02-14T02:01:10.759Z,35.20
2018-02-14T02:03:36.985Z,36.00
2018-02-14T02:06:03.133Z,41.50
2018-02-14T02:08:29.307Z,40.80
2018-02-14T02:10:56.317Z,40.80
2018-02-14T02:13:23.832Z,33.90
2018-02-14T02:15:50.035Z,33.70
2018-02-14T02:18:16.279Z,33.20
2018-02-14T02:20:42.416Z,36.20
2018-02-14T02:23:08.523Z,40.40
2018-02-14T02:25:34.673Z,39.60
2018-02-14T02:28:00.916Z,37.50
2018-02-14T02:30:27.036Z,39.50
2018-02-14T02:32:53.206Z,37.70
2018-02-14T02:35:19.331Z,40.90
2018-02-14T02:37:45.444Z,39.40
2018-02-14T02:43:10.718Z,37.40
2018-02-14T02:45:36.914Z,39.10
2018-02-14T02:48:03.159Z,44.40
2018-02-14T02:50:48.731Z,44.20
2018-02-14T02:53:15.571Z,40.40
2018-02-14T02:55:49.421Z,40.30
2018-02-14T02:58:18.982Z,44.80
2018-02-14T03:00:45.820Z,42.50
2018-02-14T03:03:21.139Z,42.70
2018-02-14T03:06:03.706Z,44.60
2018-02-14T03:08:33.075Z,58.40
2018-02-14T03:11:19.592Z,58.20
2018-02-14T03:13:45.914Z,49.00
2018-02-14T03:16:19.981Z,62.20
2018-02-14T03:18:46.386Z,62.50
2018-02-14T03:21:12.718Z,49.80
2018-02-14T03:23:50.895Z,62.50
2018-02-14T03:26:19.266Z,55.30
2018-02-14T03:28:49.602Z,64.30
2018-02-14T03:31:15.938Z,58.90
2018-02-14T03:33:42.211Z,63.60
2018-02-14T03:36:08.571Z,64.70
2018-02-14T03:38:34.946Z,60.40
2018-02-14T03:41:02.332Z,59.30
2018-02-14T03:43:29.067Z,59.10
2018-02-14T03:45:55.480Z,59.70
2018-02-14T03:48:21.820Z,69.10
2018-02-14T03:50:48.194Z,67.40
2018-02-14T03:53:14.526Z,64.60
2018-02-14T03:55:40.867Z,65.40
2018-02-14T03:58:08.571Z,74.80
2018-02-14T04:00:34.958Z,64.70
2018-02-14T04:03:02.164Z,70.20
2018-02-14T04:05:28.944Z,70.10
2018-02-14T04:07:55.312Z,73.00
2018-02-14T04:10:22.414Z,69.20
2018-02-14T04:12:48.800Z,68.90
2018-02-14T04:15:15.241Z,68.70
2018-02-14T04:17:47.409Z,65.90
2018-02-14T04:20:14.507Z,72.90
2018-02-14T04:22:40.935Z,72.70
2018-02-14T04:25:07.351Z,59.20
2018-02-14T04:27:33.698Z,67.10
2018-02-14T04:30:00.096Z,69.00
2018-02-14T04:32:26.430Z,74.10
2018-02-14T04:34:53.758Z,74.40
2018-02-14T04:37:20.135Z,69.50
2018-02-14T04:39:47.349Z,76.90
2018-02-14T04:42:13.760Z,77.80
2018-02-14T04:44:40.120Z,69.00
2018-02-14T04:47:06.503Z,84.30
2018-02-14T04:49:34.101Z,65.70
2018-02-14T04:52:01.217Z,66.30
2018-02-14T04:54:27.549Z,66.10
2018-02-14T04:56:53.830Z,64.50
2018-02-14T04:59:20.193Z,76.90
2018-02-14T05:01:46.494Z,79.40
2018-02-14T05:04:12.829Z,66.20
2018-02-14T05:06:39.321Z,70.40
2018-02-14T05:09:05.823Z,67.10
2018-02-14T05:11:32.839Z,73.00
2018-02-14T05:13:59.171Z,72.30
2018-02-14T05:16:25.544Z,70.60
2018-02-14T05:18:52.521Z,79.60
2018-02-14T05:21:18.875Z,60.20
2018-02-14T05:23:45.226Z,72.00
2018-02-14T05:26:11.713Z,68.90
2018-02-14T05:28:38.008Z,84.20
2018-02-14T05:31:04.313Z,73.60
2018-02-14T05:33:30.727Z,81.10
2018-02-14T05:35:57.075Z,67.80
2018-02-14T05:38:23.437Z,71.50
2018-02-14T05:40:49.838Z,76.30
2018-02-14T05:43:16.221Z,68.90
2018-02-14T05:45:45.509Z,73.90
2018-02-14T05:48:15.780Z,73.90
2018-02-14T05:50:42.521Z,73.50
2018-02-14T05:53:15.421Z,69.60
2018-02-14T05:55:42.473Z,72.40
2018-02-14T05:58:16.173Z,72.00
2018-02-14T06:00:42.321Z,75.80
2018-02-14T06:03:08.607Z,71.90
2018-02-14T06:05:34.756Z,63.10
2018-02-14T06:08:00.884Z,74.20
2018-02-14T06:10:27.374Z,72.50
2018-02-14T06:12:55.710Z,72.40
2018-02-14T06:15:21.932Z,70.40
2018-02-14T06:17:49.995Z,71.20
2018-02-14T06:20:16.242Z,71.30
2018-02-14T06:22:51.167Z,69.50
2018-02-14T06:25:17.424Z,69.60
2018-02-14T06:27:46.044Z,61.80
2018-02-14T06:30:12.355Z,69.00
2018-02-14T06:32:38.473Z,68.60
2018-02-14T06:35:15.536Z,78.80
2018-02-14T06:37:41.690Z,76.40
2018-02-14T06:42:45.254Z,74.00
2018-02-14T06:45:11.445Z,70.70
2018-02-14T06:47:41.788Z,69.60
2018-02-14T06:50:08.308Z,78.70
2018-02-14T06:52:35.169Z,73.30
2018-02-14T06:55:01.297Z,72.70
2018-02-14T06:57:27.730Z,75.00
2018-02-14T06:59:53.938Z,78.00
2018-02-14T07:02:20.139Z,66.00
2018-02-14T07:04:47.107Z,64.70
2018-02-14T07:07:18.854Z,63.90
2018-02-14T07:09:45.754Z,61.00
2018-02-14T07:15:29.084Z,57.60
2018-02-14T07:17:58.691Z,60.10
2018-02-14T07:20:25.066Z,54.70
2018-02-14T07:22:51.483Z,56.30
2018-02-14T07:25:17.901Z,54.00
2018-02-14T07:27:44.225Z,53.20
2018-02-14T07:30:10.655Z,54.00
2018-02-14T07:32:37.178Z,51.60
2018-02-14T07:35:21.071Z,51.60
2018-02-14T07:37:48.602Z,50.80
2018-02-14T07:40:15.090Z,49.60
2018-02-14T07:42:41.431Z,58.50
2018-02-14T07:45:07.873Z,52.70
2018-02-14T07:47:34.180Z,55.00
2018-02-14T07:50:01.731Z,54.50
2018-02-14T07:52:28.876Z,57.10
2018-02-14T07:54:55.374Z,57.10
2018-02-14T07:57:22.507Z,55.00
2018-02-14T07:59:48.898Z,54.30
2018-02-14T08:02:15.207Z,54.40
2018-02-14T08:04:42.985Z,53.10
2018-02-14T08:07:10.511Z,53.70
2018-02-14T08:09:37.051Z,52.30
2018-02-14T08:12:03.430Z,59.20
2018-02-14T08:14:29.864Z,50.80
2018-02-14T08:16:56.322Z,50.10
2018-02-14T08:19:22.712Z,48.80
2018-02-14T08:21:49.112Z,47.10
2018-02-14T08:24:15.446Z,44.70
2018-02-14T08:26:41.914Z,43.00
2018-02-14T08:29:08.253Z,34.90
2018-02-14T08:31:34.612Z,31.30
2018-02-14T08:34:01.626Z,32.60
2018-02-14T08:36:29.138Z,29.00
2018-02-14T08:38:55.724Z,28.40
2018-02-14T08:41:23.082Z,30.40
2018-02-14T08:43:49.506Z,28.50
2018-02-14T08:46:15.846Z,27.80
2018-02-14T08:48:42.242Z,31.10
2018-02-14T08:51:08.557Z,25.60
2018-02-14T08:53:34.890Z,25.10
2018-02-14T08:56:01.242Z,26.90
2018-02-14T08:58:27.563Z,22.70
2018-02-14T09:00:53.895Z,22.20
2018-02-14T09:03:20.258Z,23.10
2018-02-14T09:05:46.593Z,22.60
2018-02-14T09:08:12.947Z,19.90
2018-02-14T09:10:41.815Z,22.80
2018-02-14T09:13:08.167Z,20.10
2018-02-14T09:15:34.561Z,16.70
2018-02-14T09:18:00.974Z,18.60
2018-02-14T09:20:27.310Z,17.80
2018-02-14T09:22:54.367Z,18.90
2018-02-14T09:25:27.383Z,15.60
2018-02-14T09:27:53.757Z,15.70
2018-02-14T09:30:20.261Z,17.00
2018-02-14T09:32:47.299Z,16.30
2018-02-14T09:35:13.649Z,16.00
2018-02-14T09:37:39.981Z,17.00
2018-02-14T09:40:12.035Z,14.50
2018-02-14T09:42:38.412Z,14.30
2018-02-14T09:45:16.044Z,13.50
2018-02-14T09:47:42.176Z,13.60
2018-02-14T09:50:11.444Z,13.90
2018-02-14T09:52:38.386Z,13.70
2018-02-14T09:55:04.879Z,13.70
2018-02-14T09:57:31.203Z,12.40
2018-02-14T09:59:57.432Z,14.30
2018-02-14T10:02:23.712Z,11.80
2018-02-14T10:04:49.938Z,11.50
2018-02-14T10:07:19.703Z,12.40
2018-02-14T10:09:45.873Z,12.50
2018-02-14T10:12:12.013Z,14.40
2018-02-14T10:14:38.933Z,12.60
2018-02-14T10:17:05.085Z,12.50
2018-02-14T10:19:31.217Z,11.20
2018-02-14T10:24:28.809Z,13.40
2018-02-14T10:26:54.979Z,11.30
2018-02-14T10:29:21.140Z,10.30
2018-02-14T10:31:47.286Z,11.80
2018-02-14T10:34:13.442Z,10.30
2018-02-14T10:36:40.343Z,9.30
2018-02-14T10:39:08.865Z,9.30
2018-02-14T10:41:35.004Z,9.60
2018-02-14T10:44:01.214Z,11.70
2018-02-14T10:46:27.375Z,9.70
2018-02-14T10:48:53.597Z,8.90
2018-02-14T10:51:19.837Z,8.20
2018-02-14T10:53:46.234Z,11.30
2018-02-14T10:56:14.607Z,9.90
2018-02-14T10:58:40.787Z,7.70
2018-02-14T11:01:06.984Z,7.80
2018-02-14T11:03:42.074Z,9.80
2018-02-14T11:06:16.334Z,7.60
2018-02-14T11:08:42.509Z,6.30
2018-02-14T11:11:08.719Z,7.30
2018-02-14T11:13:34.890Z,6.30
2018-02-14T11:16:01.018Z,9.00
2018-02-14T11:18:27.159Z,7.60
2018-02-14T11:20:53.294Z,8.30
2018-02-14T11:23:22.678Z,8.30
2018-02-14T11:25:49.041Z,7.10
2018-02-14T11:28:15.747Z,6.90
2018-02-14T11:30:42.171Z,7.90
2018-02-14T11:33:08.504Z,7.70
2018-02-14T11:35:34.866Z,9.90
2018-02-14T11:38:01.291Z,9.00
2018-02-14T11:40:27.616Z,7.40
2018-02-14T11:42:55.127Z,8.70
2018-02-14T11:45:21.465Z,7.80
2018-02-14T11:47:47.941Z,7.60
2018-02-14T11:50:14.258Z,7.10
2018-02-14T11:52:40.611Z,6.60
2018-02-14T11:55:06.971Z,7.10
2018-02-14T11:57:33.351Z,6.90
2018-02-14T12:00:00.994Z,7.60
2018-02-14T12:02:28.880Z,6.70
2018-02-14T12:04:55.214Z,9.20
2018-02-14T12:07:21.601Z,7.50
2018-02-14T12:09:48.879Z,8.20
2018-02-14T12:12:15.210Z,8.10
2018-02-14T12:14:41.617Z,6.50
2018-02-14T12:17:12.155Z,7.70
2018-02-14T12:19:38.549Z,7.10
2018-02-14T12:22:05.299Z,5.90
2018-02-14T12:24:31.771Z,6.20
2018-02-14T12:26:58.137Z,5.50
2018-02-14T12:29:24.363Z,6.30
2018-02-14T12:31:50.501Z,7.80
2018-02-14T12:34:23.750Z,6.40
2018-02-14T12:36:49.932Z,6.40
2018-02-14T12:39:16.827Z,6.60
2018-02-14T12:41:43.045Z,6.50
2018-02-14T12:44:09.193Z,6.10
2018-02-14T12:46:36.204Z,6.20
2018-02-14T12:49:02.494Z,6.10
2018-02-14T12:51:28.616Z,6.30
2018-02-14T12:53:58.664Z,6.20
2018-02-14T12:56:24.801Z,7.20
2018-02-14T12:58:51.708Z,7.20
2018-02-14T13:01:17.834Z,7.20
2018-02-14T13:03:43.955Z,3.20
2018-02-14T13:06:10.063Z,3.40
2018-02-14T13:08:36.311Z,3.40
2018-02-14T13:11:03.643Z,4.10
2018-02-14T13:13:29.800Z,4.00
2018-02-14T13:15:55.987Z,2.70
2018-02-14T13:18:22.161Z,4.00
2018-02-14T13:20:48.381Z,2.30
2018-02-14T13:23:14.705Z,2.50
2018-02-14T13:25:41.619Z,1.90
2018-02-14T13:28:15.468Z,2.50
2018-02-14T13:30:41.688Z,2.00
2018-02-14T13:33:07.910Z,2.30
2018-02-14T13:35:34.097Z,3.00
2018-02-14T13:38:00.318Z,2.50
2018-02-14T13:40:26.460Z,1.80
2018-02-14T13:42:52.601Z,3.90
2018-02-14T13:45:20.703Z,1.60
2018-02-14T13:47:47.570Z,1.00
2018-02-14T13:50:13.735Z,1.20
2018-02-14T13:52:39.859Z,1.00
2018-02-14T13:55:06.034Z,1.00
2018-02-14T13:57:33.075Z,1.60
2018-02-14T13:59:59.965Z,1.20
2018-02-14T14:02:26.221Z,1.00
2018-02-14T14:04:56.369Z,2.20
2018-02-14T14:07:22.545Z,1.00
2018-02-14T14:09:48.690Z,1.90
2018-02-14T14:12:14.854Z,1.90
2018-02-14T14:14:40.975Z,1.00
2018-02-14T14:17:07.279Z,2.70
2018-02-14T14:19:33.497Z,1.00
2018-02-14T14:21:59.625Z,1.70
2018-02-14T14:24:31.870Z,2.10
2018-02-14T14:26:58.094Z,1.00
2018-02-14T14:29:24.309Z,1.30
2018-02-14T14:31:50.434Z,1.00
2018-02-14T14:34:18.056Z,2.40
2018-02-14T14:36:44.211Z,2.30
2018-02-14T14:39:15.252Z,2.50
2018-02-14T14:41:41.604Z,1.00
2018-02-14T14:44:07.794Z,2.00
2018-02-14T14:46:33.983Z,1.50
2018-02-14T14:49:00.113Z,1.00
2018-02-14T14:51:26.906Z,1.30
2018-02-14T14:53:53.251Z,1.00
2018-02-14T14:56:23.370Z,1.00
2018-02-14T14:58:49.579Z,1.00
2018-02-14T15:01:15.807Z,2.60
2018-02-14T15:03:41.940Z,1.00
2018-02-14T15:06:08.166Z,1.00
2018-02-14T15:08:34.403Z,1.50
2018-02-14T15:11:00.546Z,3.00
2018-02-14T15:13:26.679Z,2.10
2018-02-14T15:15:57.475Z,1.00
2018-02-14T15:18:24.234Z,2.20
2018-02-14T15:20:50.466Z,3.30
2018-02-14T15:23:16.644Z,2.30
2018-02-14T15:25:42.871Z,1.20
2018-02-14T15:28:09.090Z,3.30
2018-02-14T15:30:35.321Z,3.10
2018-02-14T15:33:01.495Z,3.90
2018-02-14T15:35:29.362Z,2.60
2018-02-14T15:37:55.493Z,2.20
2018-02-14T15:40:21.731Z,3.30
2018-02-14T15:42:47.898Z,2.40
2018-02-14T15:45:14.029Z,2.80
2018-02-14T15:47:40.404Z,3.30
2018-02-14T15:50:06.766Z,5.80
2018-02-14T15:52:33.131Z,1.80
2018-02-14T15:55:05.382Z,3.70
2018-02-14T15:57:31.577Z,1.60
2018-02-14T15:59:57.906Z,5.10
2018-02-14T16:02:24.078Z,2.10
2018-02-14T16:04:50.990Z,1.40
2018-02-14T16:07:18.485Z,2.10
2018-02-14T16:09:44.710Z,2.00
2018-02-14T16:12:14.650Z,2.40
2018-02-14T16:14:40.798Z,2.30
2018-02-14T16:17:06.941Z,3.00
2018-02-14T16:19:33.117Z,3.50
2018-02-14T16:21:59.246Z,4.00
2018-02-14T16:24:27.315Z,4.00
2018-02-14T16:26:53.958Z,3.10
2018-02-14T16:29:20.227Z,3.20
2018-02-14T16:31:47.133Z,3.80
2018-02-14T16:34:13.336Z,3.80
2018-02-14T16:36:39.474Z,5.60
2018-02-14T16:39:05.710Z,4.10
2018-02-14T16:41:32.665Z,4.90
2018-02-14T16:43:59.098Z,4.80
2018-02-14T16:46:25.238Z,5.40
2018-02-14T16:48:51.517Z,9.20
2018-02-14T16:51:21.446Z,7.00
2018-02-14T16:53:47.591Z,6.80
2018-02-14T16:56:13.705Z,7.60
2018-02-14T16:58:40.776Z,7.10
2018-02-14T17:01:06.980Z,6.80
2018-02-14T17:03:33.563Z,6.20
2018-02-14T17:05:59.732Z,7.50
2018-02-14T17:08:25.914Z,7.30
2018-02-14T17:10:52.352Z,9.90
2018-02-14T17:13:20.214Z,7.50
2018-02-14T17:15:46.398Z,8.00
2018-02-14T17:18:12.550Z,9.70
2018-02-14T17:20:38.653Z,7.90
2018-02-14T17:23:05.343Z,9.10
2018-02-14T17:25:31.628Z,7.30
2018-02-14T17:27:57.800Z,8.70
2018-02-14T17:30:23.962Z,8.60
2018-02-14T17:32:50.105Z,8.70
2018-02-14T17:35:16.318Z,7.30
2018-02-14T17:37:42.449Z,7.80
2018-02-14T17:40:08.852Z,8.30
2018-02-14T17:42:35.282Z,7.40
2018-02-14T17:45:02.466Z,8.60
2018-02-14T17:47:28.620Z,8.60
2018-02-14T17:49:54.786Z,9.70
2018-02-14T17:52:20.941Z,11.90
2018-02-14T17:54:48.250Z,14.00
2018-02-14T17:57:14.381Z,14.00
2018-02-14T17:59:40.564Z,11.10
2018-02-14T18:02:06.997Z,14.50
2018-02-14T18:04:33.372Z,16.10
2018-02-14T18:07:00.455Z,11.40
2018-02-14T18:09:27.672Z,11.20
2018-02-14T18:11:53.876Z,10.00
2018-02-14T18:14:20.042Z,10.20
2018-02-14T18:16:46.230Z,13.90
2018-02-14T18:19:12.491Z,13.40
2018-02-14T18:21:38.686Z,11.80
2018-02-14T18:24:05.145Z,12.90
2018-02-14T18:26:32.370Z,13.80
2018-02-14T18:29:16.358Z,13.70
2018-02-14T18:31:42.787Z,14.00
2018-02-14T18:34:09.678Z,13.20
2018-02-14T18:36:35.850Z,13.10
2018-02-14T18:39:02.134Z,10.60
2018-02-14T18:41:29.044Z,12.20
2018-02-14T18:43:55.218Z,11.70
2018-02-14T18:46:21.362Z,11.50
2018-02-14T18:48:48.493Z,12.70
2018-02-14T18:51:16.400Z,11.60
2018-02-14T18:53:42.684Z,11.60
2018-02-14T18:56:08.845Z,13.00
2018-02-14T18:58:35.901Z,14.50
2018-02-14T19:01:02.107Z,12.00
2018-02-14T19:03:28.266Z,13.60
2018-02-14T19:05:54.410Z,12.70
2018-02-14T19:08:24.220Z,12.90
2018-02-14T19:10:50.438Z,12.80
2018-02-14T19:13:17.582Z,12.70
2018-02-14T19:15:43.751Z,13.50
2018-02-14T19:18:10.749Z,12.50
2018-02-14T19:20:37.131Z,12.50
2018-02-14T19:23:03.442Z,12.30
2018-02-14T19:25:29.595Z,12.60
2018-02-14T19:27:55.742Z,13.50
2018-02-14T19:30:21.922Z,12.80
2018-02-14T19:32:49.284Z,14.10
2018-02-14T19:35:15.698Z,12.50
2018-02-14T19:37:41.877Z,13.10
2018-02-14T19:40:08.117Z,12.70
2018-02-14T19:42:34.979Z,13.10
2018-02-14T19:45:01.135Z,13.10
2018-02-14T19:47:27.280Z,13.80
2018-02-14T19:49:53.563Z,14.80
2018-02-14T19:52:19.798Z,15.10
2018-02-14T19:54:45.961Z,15.70
2018-02-14T19:57:12.163Z,13.50
2018-02-14T19:59:38.356Z,13.40
2018-02-14T20:02:04.507Z,14.30
2018-02-14T20:04:30.746Z,13.60
2018-02-14T20:22:46.295Z,13.80
2018-02-14T20:25:13.814Z,13.30
2018-02-14T20:27:40.348Z,13.30
2018-02-14T20:30:06.827Z,13.50
2018-02-14T20:32:34.582Z,13.60
2018-02-14T20:35:01.006Z,13.50
2018-02-14T20:37:28.071Z,13.50
2018-02-14T20:39:54.381Z,13.50
2018-02-14T20:42:22.382Z,13.50
2018-02-14T20:44:49.963Z,13.50
2018-02-14T20:47:19.928Z,13.30
2018-02-14T20:49:46.391Z,13.20
2018-02-14T20:52:12.903Z,13.60
2018-02-14T20:54:39.462Z,13.80
2018-02-14T20:57:05.970Z,13.20
2018-02-14T20:59:32.342Z,13.30
2018-02-14T21:01:58.699Z,12.90
2018-02-14T21:04:25.064Z,14.00
2018-02-14T21:06:52.223Z,13.20
2018-02-14T21:09:18.686Z,13.20
2018-02-14T21:11:45.083Z,13.90
2018-02-14T21:14:11.469Z,14.50
2018-02-14T21:16:37.895Z,15.00
2018-02-14T21:19:04.330Z,12.90
2018-02-14T21:21:30.758Z,14.80
2018-02-14T21:24:07.291Z,13.50
2018-02-14T21:26:33.732Z,13.60
2018-02-14T21:29:00.807Z,14.60
2018-02-14T21:31:34.036Z,14.60
2018-02-14T21:34:00.506Z,14.10
2018-02-14T21:36:30.673Z,14.70
2018-02-14T21:39:01.003Z,13.80
2018-02-14T21:41:27.484Z,15.80
2018-02-14T21:43:53.922Z,14.10
2018-02-14T21:46:20.280Z,14.50
2018-02-14T21:48:46.667Z,14.00
2018-02-14T21:51:13.051Z,13.80
2018-02-14T21:53:50.064Z,13.40
2018-02-14T21:56:16.483Z,13.70
2018-02-14T21:58:49.271Z,13.30
2018-02-14T22:01:15.723Z,13.20
2018-02-14T22:03:42.223Z,14.40
2018-02-14T22:06:08.607Z,15.20
2018-02-14T22:08:35.047Z,13.90
2018-02-14T22:13:49.506Z,13.40
2018-02-14T22:16:16.563Z,13.40
2018-02-14T22:18:46.150Z,14.30
2018-02-14T22:21:15.532Z,13.60
2018-02-14T22:23:51.311Z,14.20
2018-02-14T22:26:17.656Z,15.10
2018-02-14T22:28:43.831Z,14.10
2018-02-14T22:31:11.951Z,14.30
2018-02-14T22:33:38.120Z,15.30
2018-02-14T22:36:05.094Z,15.60
2018-02-14T22:38:31.301Z,14.80
2018-02-14T22:40:58.393Z,14.60
2018-02-14T22:43:24.675Z,17.00
2018-02-14T22:45:51.943Z,15.30
2018-02-14T22:48:18.138Z,15.20
2018-02-14T22:50:44.473Z,15.40
2018-02-14T22:53:10.635Z,14.80
2018-02-14T22:55:36.791Z,14.00
2018-02-14T22:58:03.766Z,14.30
2018-02-14T23:00:29.997Z,14.10
2018-02-14T23:02:56.166Z,14.80
2018-02-14T23:05:22.325Z,14.30
2018-02-14T23:07:48.607Z,14.90
2018-02-14T23:10:14.772Z,14.20
2018-02-14T23:12:40.925Z,14.70
2018-02-14T23:15:07.358Z,13.30
2018-02-14T23:17:33.650Z,13.60
2018-02-14T23:19:59.829Z,13.80
2018-02-14T23:22:26.725Z,13.60
2018-02-14T23:24:52.917Z,13.40
2018-02-14T23:27:19.191Z,13.20
2018-02-14T23:29:45.346Z,15.60
2018-02-14T23:32:11.676Z,13.60
2018-02-14T23:34:37.835Z,14.50
2018-02-14T23:37:04.047Z,13.70
2018-02-14T23:39:30.224Z,14.40
2018-02-14T23:41:56.378Z,13.60
2018-02-14T23:44:23.070Z,13.60
2018-02-14T23:46:50.086Z,13.30
2018-02-14T23:49:16.402Z,12.90
2018-02-14T23:51:44.781Z,12.30
2018-02-14T23:54:11.262Z,12.90
2018-02-14T23:56:37.422Z,12.40
2018-02-14T23:59:03.578Z,14.30
